sensor_id;sensor_type;location;lat;lon;timestamp;P1;durP1;ratioP1;P2;durP2;ratioP2
35576;SDS011;21680;52.400;16.920;2022-10-28T00:00:15;51.90;;;30.80;;
35576;SDS011;21680;52.400;16.920;2022-10-28T00:02:41;50.90;;;29.60;;
35576;SDS011;21680;52.400;16.920;2022-10-28T00:05:06;46.30;;;28.00;;
35576;SDS011;21680;52.400;16.920;2022-10-28T00:07:32;48.30;;;28.00;;
35576;SDS011;21680;52.400;16.920;2022-10-28T00:09:57;48.60;;;27.40;;
35576;SDS011;21680;52.400;16.920;2022-10-28T00:12:22;41.30;;;26.10;;
35576;SDS011;21680;52.400;16.920;2022-10-28T00:14:47;50.70;;;27.90;;
35576;SDS011;21680;52.400;16.920;2022-10-28T00:17:12;48.30;;;28.40;;
35576;SDS011;21680;52.400;16.920;2022-10-28T00:19:38;49.50;;;28.00;;
35576;SDS011;21680;52.400;16.920;2022-10-28T00:22:03;48.10;;;28.00;;
35576;SDS011;21680;52.400;16.920;2022-10-28T00:24:28;45.80;;;28.10;;
35576;SDS011;21680;52.400;16.920;2022-10-28T00:26:53;43.20;;;27.30;;
35576;SDS011;21680;52.400;16.920;2022-10-28T00:29:18;41.80;;;25.90;;
35576;SDS011;21680;52.400;16.920;2022-10-28T00:31:44;46.50;;;25.80;;
35576;SDS011;21680;52.400;16.920;2022-10-28T00:34:12;46.30;;;28.70;;
35576;SDS011;21680;52.400;16.920;2022-10-28T00:36:40;40.70;;;26.70;;
35576;SDS011;21680;52.400;16.920;2022-10-28T00:39:27;42.60;;;26.90;;
35576;SDS011;21680;52.400;16.920;2022-10-28T00:41:56;39.90;;;25.90;;
35576;SDS011;21680;52.400;16.920;2022-10-28T00:47:04;45.00;;;28.00;;
35576;SDS011;21680;52.400;16.920;2022-10-28T00:49:34;38.30;;;25.80;;
35576;SDS011;21680;52.400;16.920;2022-10-28T00:52:03;39.90;;;26.20;;
35576;SDS011;21680;52.400;16.920;2022-10-28T00:54:33;38.50;;;25.40;;
35576;SDS011;21680;52.400;16.920;2022-10-28T00:57:00;45.30;;;25.20;;
35576;SDS011;21680;52.400;16.920;2022-10-28T00:59:28;45.00;;;27.00;;
35576;SDS011;21680;52.400;16.920;2022-10-28T01:01:57;42.40;;;26.00;;
35576;SDS011;21680;52.400;16.920;2022-10-28T01:04:23;43.70;;;26.60;;
35576;SDS011;21680;52.400;16.920;2022-10-28T01:06:49;39.00;;;26.40;;
35576;SDS011;21680;52.400;16.920;2022-10-28T01:09:15;38.90;;;25.10;;
35576;SDS011;21680;52.400;16.920;2022-10-28T01:11:48;45.30;;;26.20;;
35576;SDS011;21680;52.400;16.920;2022-10-28T01:23:04;36.90;;;25.20;;
35576;SDS011;21680;52.400;16.920;2022-10-28T01:37:36;38.10;;;25.10;;
35576;SDS011;21680;52.400;16.920;2022-10-28T01:40:19;37.90;;;25.50;;
35576;SDS011;21680;52.400;16.920;2022-10-28T01:45:34;34.70;;;23.90;;
35576;SDS011;21680;52.400;16.920;2022-10-28T01:48:14;33.30;;;24.10;;
35576;SDS011;21680;52.400;16.920;2022-10-28T01:53:35;42.50;;;25.10;;
35576;SDS011;21680;52.400;16.920;2022-10-28T01:56:06;36.30;;;24.40;;
35576;SDS011;21680;52.400;16.920;2022-10-28T01:58:39;34.60;;;22.60;;
35576;SDS011;21680;52.400;16.920;2022-10-28T02:01:07;33.50;;;23.40;;
35576;SDS011;21680;52.400;16.920;2022-10-28T02:03:34;33.20;;;22.70;;
35576;SDS011;21680;52.400;16.920;2022-10-28T02:06:00;39.10;;;24.10;;
35576;SDS011;21680;52.400;16.920;2022-10-28T02:08:42;36.90;;;24.50;;
35576;SDS011;21680;52.400;16.920;2022-10-28T02:11:24;36.60;;;23.50;;
35576;SDS011;21680;52.400;16.920;2022-10-28T02:16:50;37.40;;;23.00;;
35576;SDS011;21680;52.400;16.920;2022-10-28T02:19:43;36.70;;;23.00;;
35576;SDS011;21680;52.400;16.920;2022-10-28T02:22:19;38.00;;;21.10;;
35576;SDS011;21680;52.400;16.920;2022-10-28T02:24:52;31.80;;;21.70;;
35576;SDS011;21680;52.400;16.920;2022-10-28T02:27:36;33.10;;;22.50;;
35576;SDS011;21680;52.400;16.920;2022-10-28T02:30:27;36.90;;;24.10;;
35576;SDS011;21680;52.400;16.920;2022-10-28T02:33:02;36.00;;;24.20;;
35576;SDS011;21680;52.400;16.920;2022-10-28T02:35:31;35.10;;;24.70;;
35576;SDS011;21680;52.400;16.920;2022-10-28T02:38:03;39.10;;;24.20;;
35576;SDS011;21680;52.400;16.920;2022-10-28T02:40:34;44.70;;;25.00;;
35576;SDS011;21680;52.400;16.920;2022-10-28T02:43:02;38.80;;;25.10;;
35576;SDS011;21680;52.400;16.920;2022-10-28T02:45:31;32.80;;;23.20;;
35576;SDS011;21680;52.400;16.920;2022-10-28T02:48:06;37.70;;;24.30;;
35576;SDS011;21680;52.400;16.920;2022-10-28T02:50:41;33.60;;;24.50;;
35576;SDS011;21680;52.400;16.920;2022-10-28T02:53:12;36.20;;;23.50;;
35576;SDS011;21680;52.400;16.920;2022-10-28T02:55:43;36.40;;;24.90;;
35576;SDS011;21680;52.400;16.920;2022-10-28T02:58:13;37.70;;;24.50;;
35576;SDS011;21680;52.400;16.920;2022-10-28T03:00:42;36.20;;;24.60;;
35576;SDS011;21680;52.400;16.920;2022-10-28T03:03:08;41.80;;;25.30;;
35576;SDS011;21680;52.400;16.920;2022-10-28T03:05:33;36.50;;;23.90;;
35576;SDS011;21680;52.400;16.920;2022-10-28T03:07:59;37.10;;;24.80;;
35576;SDS011;21680;52.400;16.920;2022-10-28T03:10:24;40.90;;;25.30;;
35576;SDS011;21680;52.400;16.920;2022-10-28T03:12:49;45.50;;;25.50;;
35576;SDS011;21680;52.400;16.920;2022-10-28T03:15:14;40.90;;;26.80;;
35576;SDS011;21680;52.400;16.920;2022-10-28T03:17:39;38.80;;;25.90;;
35576;SDS011;21680;52.400;16.920;2022-10-28T03:20:05;40.20;;;25.70;;
35576;SDS011;21680;52.400;16.920;2022-10-28T03:22:30;40.10;;;26.10;;
35576;SDS011;21680;52.400;16.920;2022-10-28T03:24:56;40.40;;;25.40;;
35576;SDS011;21680;52.400;16.920;2022-10-28T03:27:21;40.40;;;26.00;;
35576;SDS011;21680;52.400;16.920;2022-10-28T03:29:46;46.00;;;27.50;;
35576;SDS011;21680;52.400;16.920;2022-10-28T03:32:11;40.70;;;25.90;;
35576;SDS011;21680;52.400;16.920;2022-10-28T03:34:37;46.90;;;27.50;;
35576;SDS011;21680;52.400;16.920;2022-10-28T03:37:02;46.90;;;28.00;;
35576;SDS011;21680;52.400;16.920;2022-10-28T03:39:27;48.40;;;27.10;;
35576;SDS011;21680;52.400;16.920;2022-10-28T03:41:52;40.50;;;25.70;;
35576;SDS011;21680;52.400;16.920;2022-10-28T03:44:17;48.80;;;27.40;;
35576;SDS011;21680;52.400;16.920;2022-10-28T03:46:42;45.70;;;28.00;;
35576;SDS011;21680;52.400;16.920;2022-10-28T03:49:08;46.60;;;28.10;;
35576;SDS011;21680;52.400;16.920;2022-10-28T03:51:33;43.20;;;27.80;;
35576;SDS011;21680;52.400;16.920;2022-10-28T03:53:58;48.70;;;30.20;;
35576;SDS011;21680;52.400;16.920;2022-10-28T03:56:23;44.50;;;27.50;;
35576;SDS011;21680;52.400;16.920;2022-10-28T03:58:48;45.30;;;28.30;;
35576;SDS011;21680;52.400;16.920;2022-10-28T04:01:14;41.90;;;28.00;;
35576;SDS011;21680;52.400;16.920;2022-10-28T04:03:39;54.10;;;30.80;;
35576;SDS011;21680;52.400;16.920;2022-10-28T04:06:04;44.70;;;27.50;;
35576;SDS011;21680;52.400;16.920;2022-10-28T04:08:30;46.20;;;28.70;;
35576;SDS011;21680;52.400;16.920;2022-10-28T04:10:55;42.60;;;29.00;;
35576;SDS011;21680;52.400;16.920;2022-10-28T04:13:20;41.50;;;26.90;;
35576;SDS011;21680;52.400;16.920;2022-10-28T04:15:45;46.30;;;28.00;;
35576;SDS011;21680;52.400;16.920;2022-10-28T04:18:10;47.20;;;28.80;;
35576;SDS011;21680;52.400;16.920;2022-10-28T04:20:36;52.10;;;28.90;;
35576;SDS011;21680;52.400;16.920;2022-10-28T04:23:02;45.40;;;27.80;;
35576;SDS011;21680;52.400;16.920;2022-10-28T04:25:27;45.20;;;28.50;;
35576;SDS011;21680;52.400;16.920;2022-10-28T04:27:53;43.60;;;26.00;;
35576;SDS011;21680;52.400;16.920;2022-10-28T04:30:18;51.10;;;27.00;;
35576;SDS011;21680;52.400;16.920;2022-10-28T04:32:44;47.20;;;26.60;;
35576;SDS011;21680;52.400;16.920;2022-10-28T04:35:10;41.30;;;26.90;;
35576;SDS011;21680;52.400;16.920;2022-10-28T04:37:37;47.40;;;27.40;;
35576;SDS011;21680;52.400;16.920;2022-10-28T04:40:03;43.10;;;27.00;;
35576;SDS011;21680;52.400;16.920;2022-10-28T04:42:30;43.80;;;27.40;;
35576;SDS011;21680;52.400;16.920;2022-10-28T04:44:55;44.60;;;27.40;;
35576;SDS011;21680;52.400;16.920;2022-10-28T04:47:20;45.90;;;27.40;;
35576;SDS011;21680;52.400;16.920;2022-10-28T04:49:45;42.40;;;26.40;;
35576;SDS011;21680;52.400;16.920;2022-10-28T04:52:11;45.30;;;27.00;;
35576;SDS011;21680;52.400;16.920;2022-10-28T04:54:36;46.60;;;27.00;;
35576;SDS011;21680;52.400;16.920;2022-10-28T04:57:01;52.80;;;27.80;;
35576;SDS011;21680;52.400;16.920;2022-10-28T04:59:27;44.80;;;27.10;;
35576;SDS011;21680;52.400;16.920;2022-10-28T05:01:52;46.00;;;28.80;;
35576;SDS011;21680;52.400;16.920;2022-10-28T05:04:17;48.10;;;28.30;;
35576;SDS011;21680;52.400;16.920;2022-10-28T05:06:42;59.50;;;35.70;;
35576;SDS011;21680;52.400;16.920;2022-10-28T05:09:07;65.80;;;42.20;;
35576;SDS011;21680;52.400;16.920;2022-10-28T05:11:33;79.00;;;53.00;;
35576;SDS011;21680;52.400;16.920;2022-10-28T05:13:58;75.50;;;48.40;;
35576;SDS011;21680;52.400;16.920;2022-10-28T05:16:23;76.90;;;51.10;;
35576;SDS011;21680;52.400;16.920;2022-10-28T05:18:48;73.40;;;46.80;;
35576;SDS011;21680;52.400;16.920;2022-10-28T05:21:13;73.00;;;42.10;;
35576;SDS011;21680;52.400;16.920;2022-10-28T05:23:39;62.50;;;37.50;;
35576;SDS011;21680;52.400;16.920;2022-10-28T05:26:04;54.10;;;34.00;;
35576;SDS011;21680;52.400;16.920;2022-10-28T05:28:29;50.90;;;31.30;;
35576;SDS011;21680;52.400;16.920;2022-10-28T05:30:54;69.60;;;32.70;;
35576;SDS011;21680;52.400;16.920;2022-10-28T05:33:20;47.10;;;31.00;;
35576;SDS011;21680;52.400;16.920;2022-10-28T05:35:45;47.20;;;29.00;;
35576;SDS011;21680;52.400;16.920;2022-10-28T05:38:10;48.50;;;29.50;;
35576;SDS011;21680;52.400;16.920;2022-10-28T05:40:36;52.90;;;28.10;;
35576;SDS011;21680;52.400;16.920;2022-10-28T05:43:01;46.60;;;29.70;;
35576;SDS011;21680;52.400;16.920;2022-10-28T05:45:27;53.30;;;30.80;;
35576;SDS011;21680;52.400;16.920;2022-10-28T05:47:52;49.50;;;28.50;;
35576;SDS011;21680;52.400;16.920;2022-10-28T05:50:18;48.30;;;28.50;;
35576;SDS011;21680;52.400;16.920;2022-10-28T05:52:51;51.20;;;28.40;;
35576;SDS011;21680;52.400;16.920;2022-10-28T05:55:18;49.10;;;28.90;;
35576;SDS011;21680;52.400;16.920;2022-10-28T05:57:45;55.20;;;30.30;;
35576;SDS011;21680;52.400;16.920;2022-10-28T06:00:11;51.20;;;29.30;;
35576;SDS011;21680;52.400;16.920;2022-10-28T06:02:38;50.90;;;28.90;;
35576;SDS011;21680;52.400;16.920;2022-10-28T06:05:04;53.40;;;29.00;;
35576;SDS011;21680;52.400;16.920;2022-10-28T06:07:29;50.60;;;28.40;;
35576;SDS011;21680;52.400;16.920;2022-10-28T06:09:54;51.70;;;28.70;;
35576;SDS011;21680;52.400;16.920;2022-10-28T06:12:20;43.20;;;27.30;;
35576;SDS011;21680;52.400;16.920;2022-10-28T06:14:45;46.20;;;28.20;;
35576;SDS011;21680;52.400;16.920;2022-10-28T06:17:10;46.10;;;29.00;;
35576;SDS011;21680;52.400;16.920;2022-10-28T06:19:35;49.20;;;27.80;;
35576;SDS011;21680;52.400;16.920;2022-10-28T06:22:00;57.90;;;29.90;;
35576;SDS011;21680;52.400;16.920;2022-10-28T06:24:26;53.30;;;29.70;;
35576;SDS011;21680;52.400;16.920;2022-10-28T06:26:51;50.50;;;28.60;;
35576;SDS011;21680;52.400;16.920;2022-10-28T06:29:16;55.00;;;29.00;;
35576;SDS011;21680;52.400;16.920;2022-10-28T06:31:42;57.80;;;28.50;;
35576;SDS011;21680;52.400;16.920;2022-10-28T06:34:08;47.60;;;28.40;;
35576;SDS011;21680;52.400;16.920;2022-10-28T06:36:34;50.30;;;29.70;;
35576;SDS011;21680;52.400;16.920;2022-10-28T06:39:00;55.60;;;30.90;;
35576;SDS011;21680;52.400;16.920;2022-10-28T06:41:25;50.30;;;28.40;;
35576;SDS011;21680;52.400;16.920;2022-10-28T06:43:50;47.50;;;28.10;;
35576;SDS011;21680;52.400;16.920;2022-10-28T06:46:16;44.20;;;28.40;;
35576;SDS011;21680;52.400;16.920;2022-10-28T06:48:41;55.60;;;32.50;;
35576;SDS011;21680;52.400;16.920;2022-10-28T06:51:06;53.70;;;28.10;;
35576;SDS011;21680;52.400;16.920;2022-10-28T06:53:31;54.50;;;28.60;;
35576;SDS011;21680;52.400;16.920;2022-10-28T06:55:57;50.40;;;28.10;;
35576;SDS011;21680;52.400;16.920;2022-10-28T06:58:23;47.40;;;27.50;;
35576;SDS011;21680;52.400;16.920;2022-10-28T07:00:49;49.50;;;28.50;;
35576;SDS011;21680;52.400;16.920;2022-10-28T07:03:14;43.90;;;25.20;;
35576;SDS011;21680;52.400;16.920;2022-10-28T07:05:40;44.80;;;26.80;;
35576;SDS011;21680;52.400;16.920;2022-10-28T07:08:06;46.30;;;27.60;;
35576;SDS011;21680;52.400;16.920;2022-10-28T07:10:31;43.20;;;25.50;;
35576;SDS011;21680;52.400;16.920;2022-10-28T07:12:57;46.30;;;26.80;;
35576;SDS011;21680;52.400;16.920;2022-10-28T07:15:22;43.80;;;26.40;;
35576;SDS011;21680;52.400;16.920;2022-10-28T07:17:51;44.90;;;25.70;;
35576;SDS011;21680;52.400;16.920;2022-10-28T07:20:18;50.30;;;25.80;;
35576;SDS011;21680;52.400;16.920;2022-10-28T07:22:44;43.40;;;25.60;;
35576;SDS011;21680;52.400;16.920;2022-10-28T07:25:09;51.20;;;26.80;;
35576;SDS011;21680;52.400;16.920;2022-10-28T07:27:35;41.70;;;24.60;;
35576;SDS011;21680;52.400;16.920;2022-10-28T07:30:00;43.50;;;25.10;;
35576;SDS011;21680;52.400;16.920;2022-10-28T07:32:25;48.10;;;25.80;;
35576;SDS011;21680;52.400;16.920;2022-10-28T07:34:55;45.00;;;24.80;;
35576;SDS011;21680;52.400;16.920;2022-10-28T07:37:20;43.40;;;23.20;;
35576;SDS011;21680;52.400;16.920;2022-10-28T07:39:45;46.70;;;25.00;;
35576;SDS011;21680;52.400;16.920;2022-10-28T07:42:10;45.70;;;25.20;;
35576;SDS011;21680;52.400;16.920;2022-10-28T07:44:37;43.40;;;24.70;;
35576;SDS011;21680;52.400;16.920;2022-10-28T07:47:03;40.70;;;23.90;;
35576;SDS011;21680;52.400;16.920;2022-10-28T07:49:28;42.80;;;24.80;;
35576;SDS011;21680;52.400;16.920;2022-10-28T07:51:53;40.10;;;24.70;;
35576;SDS011;21680;52.400;16.920;2022-10-28T07:54:18;40.20;;;24.10;;
35576;SDS011;21680;52.400;16.920;2022-10-28T07:56:43;41.20;;;25.00;;
35576;SDS011;21680;52.400;16.920;2022-10-28T07:59:09;40.10;;;24.90;;
35576;SDS011;21680;52.400;16.920;2022-10-28T08:01:34;41.40;;;23.60;;
35576;SDS011;21680;52.400;16.920;2022-10-28T08:03:59;51.90;;;26.50;;
35576;SDS011;21680;52.400;16.920;2022-10-28T08:06:26;36.00;;;22.40;;
35576;SDS011;21680;52.400;16.920;2022-10-28T08:08:52;40.10;;;23.60;;
35576;SDS011;21680;52.400;16.920;2022-10-28T08:11:19;44.60;;;23.90;;
35576;SDS011;21680;52.400;16.920;2022-10-28T08:13:48;44.20;;;25.20;;
35576;SDS011;21680;52.400;16.920;2022-10-28T08:16:15;48.00;;;23.60;;
35576;SDS011;21680;52.400;16.920;2022-10-28T08:18:40;43.20;;;23.10;;
35576;SDS011;21680;52.400;16.920;2022-10-28T08:21:07;43.50;;;22.00;;
35576;SDS011;21680;52.400;16.920;2022-10-28T08:23:33;40.30;;;23.00;;
35576;SDS011;21680;52.400;16.920;2022-10-28T08:25:59;40.70;;;24.00;;
35576;SDS011;21680;52.400;16.920;2022-10-28T08:28:24;34.10;;;22.30;;
35576;SDS011;21680;52.400;16.920;2022-10-28T08:30:49;53.60;;;24.40;;
35576;SDS011;21680;52.400;16.920;2022-10-28T08:33:15;46.70;;;24.30;;
35576;SDS011;21680;52.400;16.920;2022-10-28T08:35:41;39.40;;;22.50;;
35576;SDS011;21680;52.400;16.920;2022-10-28T08:38:07;37.10;;;20.10;;
35576;SDS011;21680;52.400;16.920;2022-10-28T08:40:36;39.60;;;20.40;;
35576;SDS011;21680;52.400;16.920;2022-10-28T08:43:17;36.20;;;20.50;;
35576;SDS011;21680;52.400;16.920;2022-10-28T08:46:24;34.20;;;18.90;;
35576;SDS011;21680;52.400;16.920;2022-10-28T08:49:01;33.60;;;18.80;;
35576;SDS011;21680;52.400;16.920;2022-10-28T08:51:44;28.60;;;18.30;;
35576;SDS011;21680;52.400;16.920;2022-10-28T08:54:16;29.10;;;17.50;;
35576;SDS011;21680;52.400;16.920;2022-10-28T08:56:47;28.80;;;16.00;;
35576;SDS011;21680;52.400;16.920;2022-10-28T08:59:20;41.30;;;17.60;;
35576;SDS011;21680;52.400;16.920;2022-10-28T09:01:50;25.20;;;16.80;;
35576;SDS011;21680;52.400;16.920;2022-10-28T09:04:23;31.00;;;15.40;;
35576;SDS011;21680;52.400;16.920;2022-10-28T09:07:19;36.40;;;16.50;;
35576;SDS011;21680;52.400;16.920;2022-10-28T09:09:46;25.60;;;15.20;;
35576;SDS011;21680;52.400;16.920;2022-10-28T09:12:35;27.50;;;14.60;;
35576;SDS011;21680;52.400;16.920;2022-10-28T09:15:56;24.30;;;13.20;;
35576;SDS011;21680;52.400;16.920;2022-10-28T09:18:18;26.10;;;11.60;;
35576;SDS011;21680;52.400;16.920;2022-10-28T09:20:51;28.50;;;11.00;;
35576;SDS011;21680;52.400;16.920;2022-10-28T09:23:31;15.30;;;8.80;;
35576;SDS011;21680;52.400;16.920;2022-10-28T09:28:35;15.60;;;8.20;;
35576;SDS011;21680;52.400;16.920;2022-10-28T09:31:24;19.30;;;8.70;;
35576;SDS011;21680;52.400;16.920;2022-10-28T09:37:05;18.00;;;7.70;;
35576;SDS011;21680;52.400;16.920;2022-10-28T09:39:54;18.40;;;8.60;;
35576;SDS011;21680;52.400;16.920;2022-10-28T09:42:22;24.10;;;8.00;;
35576;SDS011;21680;52.400;16.920;2022-10-28T09:44:53;22.80;;;8.60;;
35576;SDS011;21680;52.400;16.920;2022-10-28T09:47:21;19.80;;;8.00;;
35576;SDS011;21680;52.400;16.920;2022-10-28T09:49:50;14.30;;;8.00;;
35576;SDS011;21680;52.400;16.920;2022-10-28T09:52:21;17.00;;;7.60;;
35576;SDS011;21680;52.400;16.920;2022-10-28T09:54:52;17.70;;;8.90;;
35576;SDS011;21680;52.400;16.920;2022-10-28T09:57:19;26.00;;;9.30;;
35576;SDS011;21680;52.400;16.920;2022-10-28T09:59:46;15.70;;;8.50;;
35576;SDS011;21680;52.400;16.920;2022-10-28T10:02:23;17.80;;;8.30;;
35576;SDS011;21680;52.400;16.920;2022-10-28T10:04:52;17.00;;;8.30;;
35576;SDS011;21680;52.400;16.920;2022-10-28T10:07:27;19.40;;;8.60;;
35576;SDS011;21680;52.400;16.920;2022-10-28T10:09:58;24.00;;;7.80;;
35576;SDS011;21680;52.400;16.920;2022-10-28T10:12:29;19.10;;;7.70;;
35576;SDS011;21680;52.400;16.920;2022-10-28T10:14:55;18.60;;;8.10;;
35576;SDS011;21680;52.400;16.920;2022-10-28T10:17:26;44.60;;;9.60;;
35576;SDS011;21680;52.400;16.920;2022-10-28T10:20:09;15.80;;;7.80;;
35576;SDS011;21680;52.400;16.920;2022-10-28T10:22:36;23.60;;;9.20;;
35576;SDS011;21680;52.400;16.920;2022-10-28T10:25:25;23.50;;;8.50;;
35576;SDS011;21680;52.400;16.920;2022-10-28T10:27:55;14.20;;;8.30;;
35576;SDS011;21680;52.400;16.920;2022-10-28T10:30:24;18.10;;;8.20;;
35576;SDS011;21680;52.400;16.920;2022-10-28T10:32:54;14.70;;;7.50;;
35576;SDS011;21680;52.400;16.920;2022-10-28T10:35:23;17.90;;;8.50;;
35576;SDS011;21680;52.400;16.920;2022-10-28T10:37:48;17.90;;;8.10;;
35576;SDS011;21680;52.400;16.920;2022-10-28T10:42:40;15.60;;;7.80;;
35576;SDS011;21680;52.400;16.920;2022-10-28T10:47:39;16.20;;;7.40;;
35576;SDS011;21680;52.400;16.920;2022-10-28T10:52:50;19.60;;;7.80;;
35576;SDS011;21680;52.400;16.920;2022-10-28T10:55:19;14.90;;;7.20;;
35576;SDS011;21680;52.400;16.920;2022-10-28T10:57:47;19.90;;;8.60;;
35576;SDS011;21680;52.400;16.920;2022-10-28T11:00:17;14.20;;;7.00;;
35576;SDS011;21680;52.400;16.920;2022-10-28T11:02:45;18.90;;;6.70;;
35576;SDS011;21680;52.400;16.920;2022-10-28T11:05:11;12.90;;;6.80;;
35576;SDS011;21680;52.400;16.920;2022-10-28T11:07:46;23.00;;;8.30;;
35576;SDS011;21680;52.400;16.920;2022-10-28T11:10:21;19.20;;;7.20;;
35576;SDS011;21680;52.400;16.920;2022-10-28T11:12:50;28.90;;;7.90;;
35576;SDS011;21680;52.400;16.920;2022-10-28T11:15:24;21.10;;;7.70;;
35576;SDS011;21680;52.400;16.920;2022-10-28T11:17:59;20.60;;;8.20;;
35576;SDS011;21680;52.400;16.920;2022-10-28T11:26:15;17.70;;;7.90;;
35576;SDS011;21680;52.400;16.920;2022-10-28T11:29:02;17.50;;;8.20;;
35576;SDS011;21680;52.400;16.920;2022-10-28T11:39:58;16.10;;;7.50;;
35576;SDS011;21680;52.400;16.920;2022-10-28T11:42:43;13.30;;;6.60;;
35576;SDS011;21680;52.400;16.920;2022-10-28T11:45:34;15.20;;;6.60;;
35576;SDS011;21680;52.400;16.920;2022-10-28T11:51:24;15.60;;;7.20;;
35576;SDS011;21680;52.400;16.920;2022-10-28T11:54:40;14.40;;;6.20;;
35576;SDS011;21680;52.400;16.920;2022-10-28T11:57:31;20.90;;;6.90;;
35576;SDS011;21680;52.400;16.920;2022-10-28T12:00:06;12.10;;;6.10;;
35576;SDS011;21680;52.400;16.920;2022-10-28T12:02:42;12.90;;;6.50;;
35576;SDS011;21680;52.400;16.920;2022-10-28T12:05:40;13.30;;;6.20;;
35576;SDS011;21680;52.400;16.920;2022-10-28T12:19:09;11.30;;;6.30;;
35576;SDS011;21680;52.400;16.920;2022-10-28T12:24:33;12.20;;;6.70;;
35576;SDS011;21680;52.400;16.920;2022-10-28T12:27:03;12.40;;;6.00;;
35576;SDS011;21680;52.400;16.920;2022-10-28T12:29:37;16.50;;;6.50;;
35576;SDS011;21680;52.400;16.920;2022-10-28T12:32:07;15.20;;;6.50;;
35576;SDS011;21680;52.400;16.920;2022-10-28T12:34:37;16.30;;;6.00;;
35576;SDS011;21680;52.400;16.920;2022-10-28T12:37:08;12.50;;;5.40;;
35576;SDS011;21680;52.400;16.920;2022-10-28T12:39:38;18.40;;;6.10;;
35576;SDS011;21680;52.400;16.920;2022-10-28T12:42:17;12.60;;;5.80;;
35576;SDS011;21680;52.400;16.920;2022-10-28T12:44:49;22.80;;;5.70;;
35576;SDS011;21680;52.400;16.920;2022-10-28T12:47:29;16.30;;;6.30;;
35576;SDS011;21680;52.400;16.920;2022-10-28T12:50:13;16.10;;;6.00;;
35576;SDS011;21680;52.400;16.920;2022-10-28T12:55:26;11.50;;;6.20;;
35576;SDS011;21680;52.400;16.920;2022-10-28T12:58:03;16.80;;;7.00;;
35576;SDS011;21680;52.400;16.920;2022-10-28T13:00:36;14.60;;;6.30;;
35576;SDS011;21680;52.400;16.920;2022-10-28T13:03:10;22.10;;;8.20;;
35576;SDS011;21680;52.400;16.920;2022-10-28T13:05:38;15.20;;;6.20;;
35576;SDS011;21680;52.400;16.920;2022-10-28T13:16:06;20.20;;;7.00;;
35576;SDS011;21680;52.400;16.920;2022-10-28T13:19:28;15.50;;;6.90;;
35576;SDS011;21680;52.400;16.920;2022-10-28T13:22:09;19.70;;;7.00;;
35576;SDS011;21680;52.400;16.920;2022-10-28T13:24:46;17.80;;;5.70;;
35576;SDS011;21680;52.400;16.920;2022-10-28T13:27:16;16.20;;;5.90;;
35576;SDS011;21680;52.400;16.920;2022-10-28T13:29:47;20.60;;;7.40;;
35576;SDS011;21680;52.400;16.920;2022-10-28T13:34:59;18.10;;;7.50;;
35576;SDS011;21680;52.400;16.920;2022-10-28T13:37:33;16.70;;;7.50;;
35576;SDS011;21680;52.400;16.920;2022-10-28T13:40:00;14.70;;;8.30;;
35576;SDS011;21680;52.400;16.920;2022-10-28T13:42:30;19.80;;;7.90;;
35576;SDS011;21680;52.400;16.920;2022-10-28T13:45:42;13.80;;;6.70;;
35576;SDS011;21680;52.400;16.920;2022-10-28T13:56:10;24.60;;;7.40;;
35576;SDS011;21680;52.400;16.920;2022-10-28T13:58:56;14.30;;;6.40;;
35576;SDS011;21680;52.400;16.920;2022-10-28T14:04:27;14.00;;;6.30;;
35576;SDS011;21680;52.400;16.920;2022-10-28T14:09:36;12.70;;;5.90;;
35576;SDS011;21680;52.400;16.920;2022-10-28T14:14:48;14.30;;;7.10;;
35576;SDS011;21680;52.400;16.920;2022-10-28T14:17:18;14.20;;;6.00;;
35576;SDS011;21680;52.400;16.920;2022-10-28T14:19:47;12.40;;;6.60;;
35576;SDS011;21680;52.400;16.920;2022-10-28T14:22:25;14.10;;;6.00;;
35576;SDS011;21680;52.400;16.920;2022-10-28T14:24:53;19.40;;;5.50;;
35576;SDS011;21680;52.400;16.920;2022-10-28T14:27:18;13.90;;;6.20;;
35576;SDS011;21680;52.400;16.920;2022-10-28T14:37:59;13.40;;;6.40;;
35576;SDS011;21680;52.400;16.920;2022-10-28T14:41:05;21.10;;;6.20;;
35576;SDS011;21680;52.400;16.920;2022-10-28T14:43:45;20.00;;;7.60;;
35576;SDS011;21680;52.400;16.920;2022-10-28T14:46:28;20.90;;;7.40;;
35576;SDS011;21680;52.400;16.920;2022-10-28T14:49:13;15.70;;;6.90;;
35576;SDS011;21680;52.400;16.920;2022-10-28T14:51:43;8.90;;;5.60;;
35576;SDS011;21680;52.400;16.920;2022-10-28T14:54:15;14.30;;;6.20;;
35576;SDS011;21680;52.400;16.920;2022-10-28T14:56:46;11.70;;;5.80;;
35576;SDS011;21680;52.400;16.920;2022-10-28T15:01:56;18.40;;;5.80;;
35576;SDS011;21680;52.400;16.920;2022-10-28T15:04:25;12.70;;;5.40;;
35576;SDS011;21680;52.400;16.920;2022-10-28T15:06:50;13.30;;;5.80;;
35576;SDS011;21680;52.400;16.920;2022-10-28T15:09:17;15.10;;;6.50;;
35576;SDS011;21680;52.400;16.920;2022-10-28T15:11:50;12.20;;;5.70;;
35576;SDS011;21680;52.400;16.920;2022-10-28T15:14:24;17.30;;;6.00;;
35576;SDS011;21680;52.400;16.920;2022-10-28T15:16:50;12.90;;;6.30;;
35576;SDS011;21680;52.400;16.920;2022-10-28T15:19:16;14.60;;;6.10;;
35576;SDS011;21680;52.400;16.920;2022-10-28T15:22:00;19.80;;;6.70;;
35576;SDS011;21680;52.400;16.920;2022-10-28T15:24:27;21.20;;;7.20;;
35576;SDS011;21680;52.400;16.920;2022-10-28T15:26:55;17.50;;;7.50;;
35576;SDS011;21680;52.400;16.920;2022-10-28T15:29:21;18.50;;;6.70;;
35576;SDS011;21680;52.400;16.920;2022-10-28T15:34:47;16.60;;;7.50;;
35576;SDS011;21680;52.400;16.920;2022-10-28T15:37:17;16.00;;;6.90;;
35576;SDS011;21680;52.400;16.920;2022-10-28T15:39:45;26.50;;;7.60;;
35576;SDS011;21680;52.400;16.920;2022-10-28T15:42:26;19.20;;;7.30;;
35576;SDS011;21680;52.400;16.920;2022-10-28T15:44:54;12.50;;;7.10;;
35576;SDS011;21680;52.400;16.920;2022-10-28T15:47:24;17.80;;;7.00;;
35576;SDS011;21680;52.400;16.920;2022-10-28T15:49:58;16.00;;;6.90;;
35576;SDS011;21680;52.400;16.920;2022-10-28T15:52:29;14.50;;;8.50;;
35576;SDS011;21680;52.400;16.920;2022-10-28T15:57:24;16.50;;;8.10;;
35576;SDS011;21680;52.400;16.920;2022-10-28T16:02:50;17.80;;;7.30;;
35576;SDS011;21680;52.400;16.920;2022-10-28T16:08:01;22.60;;;6.90;;
35576;SDS011;21680;52.400;16.920;2022-10-28T16:10:36;23.90;;;8.10;;
35576;SDS011;21680;52.400;16.920;2022-10-28T16:13:12;20.70;;;7.80;;
35576;SDS011;21680;52.400;16.920;2022-10-28T16:16:02;16.90;;;7.30;;
35576;SDS011;21680;52.400;16.920;2022-10-28T16:18:37;19.00;;;7.60;;
35576;SDS011;21680;52.400;16.920;2022-10-28T16:21:06;28.20;;;10.00;;
35576;SDS011;21680;52.400;16.920;2022-10-28T16:23:33;20.30;;;8.90;;
35576;SDS011;21680;52.400;16.920;2022-10-28T16:26:02;23.30;;;9.60;;
35576;SDS011;21680;52.400;16.920;2022-10-28T16:28:28;27.80;;;11.00;;
35576;SDS011;21680;52.400;16.920;2022-10-28T16:30:56;19.60;;;8.60;;
35576;SDS011;21680;52.400;16.920;2022-10-28T16:33:25;21.70;;;9.00;;
35576;SDS011;21680;52.400;16.920;2022-10-28T16:35:53;20.50;;;10.00;;
35576;SDS011;21680;52.400;16.920;2022-10-28T16:38:19;24.30;;;8.70;;